sensor_id;sensor_type;location;lat;lon;timestamp;temperature;humidity
13148;DHT22;6639;50.956;4.242;2023-06-14T00:00:47;27.80;70.30
13148;DHT22;6639;50.956;4.242;2023-06-14T00:03:14;27.80;69.70
13148;DHT22;6639;50.956;4.242;2023-06-14T00:05:43;27.60;70.90
13148;DHT22;6639;50.956;4.242;2023-06-14T00:08:12;27.80;71.50
13148;DHT22;6639;50.956;4.242;2023-06-14T00:10:39;27.40;71.40
13148;DHT22;6639;50.956;4.242;2023-06-14T00:13:09;27.30;71.20
13148;DHT22;6639;50.956;4.242;2023-06-14T00:15:36;27.20;70.60
13148;DHT22;6639;50.956;4.242;2023-06-14T00:18:04;27.40;70.30
13148;DHT22;6639;50.956;4.242;2023-06-14T00:20:32;27.30;71.10
13148;DHT22;6639;50.956;4.242;2023-06-14T00:23:00;27.20;71.40
13148;DHT22;6639;50.956;4.242;2023-06-14T00:25:27;27.40;72.20
13148;DHT22;6639;50.956;4.242;2023-06-14T00:27:54;27.20;72.00
13148;DHT22;6639;50.956;4.242;2023-06-14T00:30:23;27.20;71.80
13148;DHT22;6639;50.956;4.242;2023-06-14T00:32:50;27.10;72.00
13148;DHT22;6639;50.956;4.242;2023-06-14T00:35:17;26.90;72.10
13148;DHT22;6639;50.956;4.242;2023-06-14T00:37:44;26.80;72.50
13148;DHT22;6639;50.956;4.242;2023-06-14T00:40:11;26.60;73.60
13148;DHT22;6639;50.956;4.242;2023-06-14T00:42:38;26.80;73.30
13148;DHT22;6639;50.956;4.242;2023-06-14T00:45:05;26.90;72.70
13148;DHT22;6639;50.956;4.242;2023-06-14T00:47:34;27.00;72.50
13148;DHT22;6639;50.956;4.242;2023-06-14T00:50:03;27.00;72.20
13148;DHT22;6639;50.956;4.242;2023-06-14T00:52:33;26.70;72.70
13148;DHT22;6639;50.956;4.242;2023-06-14T00:55:00;26.70;72.70
13148;DHT22;6639;50.956;4.242;2023-06-14T00:57:27;26.70;73.80
13148;DHT22;6639;50.956;4.242;2023-06-14T00:59:55;26.70;73.40
13148;DHT22;6639;50.956;4.242;2023-06-14T01:02:22;26.70;74.10
13148;DHT22;6639;50.956;4.242;2023-06-14T01:04:52;26.50;74.20
13148;DHT22;6639;50.956;4.242;2023-06-14T01:07:25;26.50;74.80
13148;DHT22;6639;50.956;4.242;2023-06-14T01:10:03;26.60;74.40
13148;DHT22;6639;50.956;4.242;2023-06-14T01:12:39;26.30;74.60
13148;DHT22;6639;50.956;4.242;2023-06-14T01:15:08;26.20;74.70
13148;DHT22;6639;50.956;4.242;2023-06-14T01:17:36;26.40;74.70
13148;DHT22;6639;50.956;4.242;2023-06-14T01:20:12;26.30;74.30
13148;DHT22;6639;50.956;4.242;2023-06-14T01:22:50;26.20;74.30
13148;DHT22;6639;50.956;4.242;2023-06-14T01:25:18;26.40;74.30
13148;DHT22;6639;50.956;4.242;2023-06-14T01:27:47;26.40;74.50
13148;DHT22;6639;50.956;4.242;2023-06-14T01:30:15;26.30;74.60
13148;DHT22;6639;50.956;4.242;2023-06-14T01:32:44;26.20;74.10
13148;DHT22;6639;50.956;4.242;2023-06-14T01:35:11;26.00;74.40
13148;DHT22;6639;50.956;4.242;2023-06-14T01:37:40;26.00;74.30
13148;DHT22;6639;50.956;4.242;2023-06-14T01:40:10;25.60;74.70
13148;DHT22;6639;50.956;4.242;2023-06-14T01:42:38;25.70;74.70
13148;DHT22;6639;50.956;4.242;2023-06-14T01:45:06;26.00;74.30
13148;DHT22;6639;50.956;4.242;2023-06-14T01:47:34;26.00;73.80
13148;DHT22;6639;50.956;4.242;2023-06-14T01:50:02;25.80;73.60
13148;DHT22;6639;50.956;4.242;2023-06-14T01:52:29;25.80;73.60
13148;DHT22;6639;50.956;4.242;2023-06-14T01:54:56;25.80;74.20
13148;DHT22;6639;50.956;4.242;2023-06-14T01:57:25;25.60;75.00
13148;DHT22;6639;50.956;4.242;2023-06-14T01:59:53;25.70;76.20
13148;DHT22;6639;50.956;4.242;2023-06-14T02:02:20;25.80;75.70
13148;DHT22;6639;50.956;4.242;2023-06-14T02:04:46;25.90;76.20
13148;DHT22;6639;50.956;4.242;2023-06-14T02:07:14;25.40;76.90
13148;DHT22;6639;50.956;4.242;2023-06-14T02:09:41;25.50;76.70
13148;DHT22;6639;50.956;4.242;2023-06-14T02:12:09;25.60;75.60
13148;DHT22;6639;50.956;4.242;2023-06-14T02:14:37;25.40;75.80
13148;DHT22;6639;50.956;4.242;2023-06-14T02:17:05;25.40;75.60
13148;DHT22;6639;50.956;4.242;2023-06-14T02:19:32;25.20;75.60
13148;DHT22;6639;50.956;4.242;2023-06-14T02:21:59;25.30;76.00
13148;DHT22;6639;50.956;4.242;2023-06-14T02:24:26;25.30;75.70
13148;DHT22;6639;50.956;4.242;2023-06-14T02:26:53;25.20;75.40
13148;DHT22;6639;50.956;4.242;2023-06-14T02:29:20;25.30;75.20
13148;DHT22;6639;50.956;4.242;2023-06-14T02:31:48;25.30;74.60
13148;DHT22;6639;50.956;4.242;2023-06-14T02:34:15;25.40;75.50
13148;DHT22;6639;50.956;4.242;2023-06-14T02:36:43;25.40;74.90
13148;DHT22;6639;50.956;4.242;2023-06-14T02:39:10;25.50;74.50
13148;DHT22;6639;50.956;4.242;2023-06-14T02:41:38;25.40;74.40
13148;DHT22;6639;50.956;4.242;2023-06-14T02:44:05;25.40;73.80
13148;DHT22;6639;50.956;4.242;2023-06-14T02:46:32;25.40;73.20
13148;DHT22;6639;50.956;4.242;2023-06-14T02:49:01;25.40;73.10
13148;DHT22;6639;50.956;4.242;2023-06-14T02:51:27;25.50;73.10
13148;DHT22;6639;50.956;4.242;2023-06-14T02:53:55;25.50;73.60
13148;DHT22;6639;50.956;4.242;2023-06-14T02:56:21;25.60;72.80
13148;DHT22;6639;50.956;4.242;2023-06-14T02:58:49;25.40;72.10
13148;DHT22;6639;50.956;4.242;2023-06-14T03:01:16;25.50;73.00
13148;DHT22;6639;50.956;4.242;2023-06-14T03:03:43;25.50;72.60
13148;DHT22;6639;50.956;4.242;2023-06-14T03:06:12;25.60;73.00
13148;DHT22;6639;50.956;4.242;2023-06-14T03:08:39;25.70;72.90
13148;DHT22;6639;50.956;4.242;2023-06-14T03:11:07;25.70;73.00
13148;DHT22;6639;50.956;4.242;2023-06-14T03:13:34;25.60;72.90
13148;DHT22;6639;50.956;4.242;2023-06-14T03:16:03;25.40;73.20
13148;DHT22;6639;50.956;4.242;2023-06-14T03:18:30;25.60;72.20
13148;DHT22;6639;50.956;4.242;2023-06-14T03:21:01;25.60;72.40
13148;DHT22;6639;50.956;4.242;2023-06-14T03:23:29;25.50;72.80
13148;DHT22;6639;50.956;4.242;2023-06-14T03:25:56;25.60;73.00
13148;DHT22;6639;50.956;4.242;2023-06-14T03:28:23;25.60;73.00
13148;DHT22;6639;50.956;4.242;2023-06-14T03:30:51;25.60;73.00
13148;DHT22;6639;50.956;4.242;2023-06-14T03:33:18;25.40;73.10
13148;DHT22;6639;50.956;4.242;2023-06-14T03:35:46;25.10;73.60
13148;DHT22;6639;50.956;4.242;2023-06-14T03:38:13;25.20;73.80
13148;DHT22;6639;50.956;4.242;2023-06-14T03:40:41;25.00;73.60
13148;DHT22;6639;50.956;4.242;2023-06-14T03:43:10;25.30;73.70
13148;DHT22;6639;50.956;4.242;2023-06-14T03:45:37;25.20;73.70
13148;DHT22;6639;50.956;4.242;2023-06-14T03:48:04;25.10;74.00
13148;DHT22;6639;50.956;4.242;2023-06-14T03:50:32;24.90;74.40
13148;DHT22;6639;50.956;4.242;2023-06-14T03:52:59;24.90;74.90
13148;DHT22;6639;50.956;4.242;2023-06-14T03:55:26;25.00;74.30
13148;DHT22;6639;50.956;4.242;2023-06-14T03:57:58;25.10;74.10
13148;DHT22;6639;50.956;4.242;2023-06-14T04:00:25;25.10;73.20
13148;DHT22;6639;50.956;4.242;2023-06-14T04:02:52;25.00;73.70
13148;DHT22;6639;50.956;4.242;2023-06-14T04:05:19;25.10;73.90
13148;DHT22;6639;50.956;4.242;2023-06-14T04:07:46;25.20;72.90
13148;DHT22;6639;50.956;4.242;2023-06-14T04:10:15;25.30;72.10
13148;DHT22;6639;50.956;4.242;2023-06-14T04:12:42;25.40;71.60
13148;DHT22;6639;50.956;4.242;2023-06-14T04:15:10;25.40;72.10
13148;DHT22;6639;50.956;4.242;2023-06-14T04:17:38;25.40;73.00
13148;DHT22;6639;50.956;4.242;2023-06-14T04:20:06;25.50;72.90
13148;DHT22;6639;50.956;4.242;2023-06-14T04:22:36;25.60;73.70
13148;DHT22;6639;50.956;4.242;2023-06-14T04:25:03;25.60;73.20
13148;DHT22;6639;50.956;4.242;2023-06-14T04:27:31;25.60;72.00
13148;DHT22;6639;50.956;4.242;2023-06-14T04:30:02;25.70;72.20
13148;DHT22;6639;50.956;4.242;2023-06-14T04:32:30;25.70;72.60
13148;DHT22;6639;50.956;4.242;2023-06-14T04:34:59;25.90;73.90
13148;DHT22;6639;50.956;4.242;2023-06-14T04:37:27;25.90;72.10
13148;DHT22;6639;50.956;4.242;2023-06-14T04:39:54;26.00;72.60
13148;DHT22;6639;50.956;4.242;2023-06-14T04:42:22;26.00;71.10
13148;DHT22;6639;50.956;4.242;2023-06-14T04:44:51;25.70;70.80
13148;DHT22;6639;50.956;4.242;2023-06-14T04:47:21;26.30;72.90
13148;DHT22;6639;50.956;4.242;2023-06-14T04:49:51;26.60;71.80
13148;DHT22;6639;50.956;4.242;2023-06-14T04:52:19;26.60;69.80
13148;DHT22;6639;50.956;4.242;2023-06-14T04:54:46;26.60;69.40
13148;DHT22;6639;50.956;4.242;2023-06-14T04:57:14;27.00;70.50
13148;DHT22;6639;50.956;4.242;2023-06-14T04:59:43;26.90;68.40
13148;DHT22;6639;50.956;4.242;2023-06-14T05:02:10;26.80;68.90
13148;DHT22;6639;50.956;4.242;2023-06-14T05:04:37;26.80;69.00
13148;DHT22;6639;50.956;4.242;2023-06-14T05:07:08;27.00;69.70
13148;DHT22;6639;50.956;4.242;2023-06-14T05:09:36;27.10;68.70
13148;DHT22;6639;50.956;4.242;2023-06-14T05:12:04;27.40;69.90
13148;DHT22;6639;50.956;4.242;2023-06-14T05:14:33;27.20;67.00
13148;DHT22;6639;50.956;4.242;2023-06-14T05:17:00;27.60;68.50
13148;DHT22;6639;50.956;4.242;2023-06-14T05:19:28;27.90;67.70
13148;DHT22;6639;50.956;4.242;2023-06-14T05:21:55;27.90;67.30
13148;DHT22;6639;50.956;4.242;2023-06-14T05:24:23;28.00;66.70
13148;DHT22;6639;50.956;4.242;2023-06-14T05:26:50;27.90;66.10
13148;DHT22;6639;50.956;4.242;2023-06-14T05:29:17;27.80;66.00
13148;DHT22;6639;50.956;4.242;2023-06-14T05:31:44;27.70;67.20
13148;DHT22;6639;50.956;4.242;2023-06-14T05:34:11;27.90;68.00
13148;DHT22;6639;50.956;4.242;2023-06-14T05:36:38;28.40;67.10
13148;DHT22;6639;50.956;4.242;2023-06-14T05:39:05;28.90;67.50
13148;DHT22;6639;50.956;4.242;2023-06-14T05:41:35;29.00;65.80
13148;DHT22;6639;50.956;4.242;2023-06-14T05:44:02;29.40;66.30
13148;DHT22;6639;50.956;4.242;2023-06-14T05:46:29;29.30;65.50
13148;DHT22;6639;50.956;4.242;2023-06-14T05:48:56;29.30;66.00
13148;DHT22;6639;50.956;4.242;2023-06-14T05:51:23;28.70;64.60
13148;DHT22;6639;50.956;4.242;2023-06-14T05:53:52;28.80;66.50
13148;DHT22;6639;50.956;4.242;2023-06-14T05:56:19;28.90;66.80
13148;DHT22;6639;50.956;4.242;2023-06-14T05:58:47;29.00;66.40
13148;DHT22;6639;50.956;4.242;2023-06-14T06:01:14;29.30;65.60
13148;DHT22;6639;50.956;4.242;2023-06-14T06:03:42;29.10;64.80
13148;DHT22;6639;50.956;4.242;2023-06-14T06:06:11;29.30;65.40
13148;DHT22;6639;50.956;4.242;2023-06-14T06:08:38;29.10;64.80
13148;DHT22;6639;50.956;4.242;2023-06-14T06:11:06;29.30;64.20
13148;DHT22;6639;50.956;4.242;2023-06-14T06:13:33;28.90;64.10
13148;DHT22;6639;50.956;4.242;2023-06-14T06:16:02;29.10;65.80
13148;DHT22;6639;50.956;4.242;2023-06-14T06:18:29;29.10;64.30
13148;DHT22;6639;50.956;4.242;2023-06-14T06:20:55;29.20;64.60
13148;DHT22;6639;50.956;4.242;2023-06-14T06:23:22;29.80;65.60
13148;DHT22;6639;50.956;4.242;2023-06-14T06:25:49;29.80;64.00
13148;DHT22;6639;50.956;4.242;2023-06-14T06:28:17;29.70;64.00
13148;DHT22;6639;50.956;4.242;2023-06-14T06:30:44;29.80;64.30
13148;DHT22;6639;50.956;4.242;2023-06-14T06:33:12;30.00;64.80
13148;DHT22;6639;50.956;4.242;2023-06-14T06:35:39;30.20;63.90
13148;DHT22;6639;50.956;4.242;2023-06-14T06:38:06;30.90;64.70
13148;DHT22;6639;50.956;4.242;2023-06-14T06:40:34;31.10;62.30
13148;DHT22;6639;50.956;4.242;2023-06-14T06:43:02;30.80;62.80
13148;DHT22;6639;50.956;4.242;2023-06-14T06:45:29;30.90;62.80
13148;DHT22;6639;50.956;4.242;2023-06-14T06:47:56;31.20;62.90
13148;DHT22;6639;50.956;4.242;2023-06-14T06:50:24;31.50;63.80
13148;DHT22;6639;50.956;4.242;2023-06-14T06:52:51;31.70;61.70
13148;DHT22;6639;50.956;4.242;2023-06-14T06:55:19;31.80;61.90
13148;DHT22;6639;50.956;4.242;2023-06-14T06:57:45;32.10;61.30
13148;DHT22;6639;50.956;4.242;2023-06-14T07:00:13;32.30;61.20
13148;DHT22;6639;50.956;4.242;2023-06-14T07:02:40;32.20;61.10
13148;DHT22;6639;50.956;4.242;2023-06-14T07:05:07;32.50;60.90
13148;DHT22;6639;50.956;4.242;2023-06-14T07:07:35;32.60;59.80
13148;DHT22;6639;50.956;4.242;2023-06-14T07:10:03;32.30;60.80
13148;DHT22;6639;50.956;4.242;2023-06-14T07:12:30;32.60;61.90
13148;DHT22;6639;50.956;4.242;2023-06-14T07:14:59;33.10;61.50
13148;DHT22;6639;50.956;4.242;2023-06-14T07:17:26;33.40;60.80
13148;DHT22;6639;50.956;4.242;2023-06-14T07:19:53;33.70;59.20
13148;DHT22;6639;50.956;4.242;2023-06-14T07:22:20;33.70;59.40
13148;DHT22;6639;50.956;4.242;2023-06-14T07:24:48;33.40;60.20
13148;DHT22;6639;50.956;4.242;2023-06-14T07:27:15;33.70;59.10
13148;DHT22;6639;50.956;4.242;2023-06-14T07:29:42;34.00;59.50
13148;DHT22;6639;50.956;4.242;2023-06-14T07:32:09;34.10;58.40
13148;DHT22;6639;50.956;4.242;2023-06-14T07:34:36;34.10;58.00
13148;DHT22;6639;50.956;4.242;2023-06-14T07:37:03;34.20;59.30
13148;DHT22;6639;50.956;4.242;2023-06-14T07:39:30;33.80;57.90
13148;DHT22;6639;50.956;4.242;2023-06-14T07:41:58;33.80;58.30
13148;DHT22;6639;50.956;4.242;2023-06-14T07:44:27;33.80;59.10
13148;DHT22;6639;50.956;4.242;2023-06-14T07:46:54;33.70;58.10
13148;DHT22;6639;50.956;4.242;2023-06-14T07:49:22;33.80;58.70
13148;DHT22;6639;50.956;4.242;2023-06-14T07:51:49;34.10;58.10
13148;DHT22;6639;50.956;4.242;2023-06-14T07:54:16;34.50;58.70
13148;DHT22;6639;50.956;4.242;2023-06-14T07:56:43;35.00;58.40
13148;DHT22;6639;50.956;4.242;2023-06-14T07:59:11;34.80;56.30
13148;DHT22;6639;50.956;4.242;2023-06-14T08:01:38;34.70;56.30
13148;DHT22;6639;50.956;4.242;2023-06-14T08:04:05;34.50;56.80
13148;DHT22;6639;50.956;4.242;2023-06-14T08:06:33;34.10;57.20
13148;DHT22;6639;50.956;4.242;2023-06-14T08:09:00;34.70;57.50
13148;DHT22;6639;50.956;4.242;2023-06-14T08:11:27;34.50;57.50
13148;DHT22;6639;50.956;4.242;2023-06-14T08:13:54;34.80;57.80
13148;DHT22;6639;50.956;4.242;2023-06-14T08:16:22;34.70;57.60
13148;DHT22;6639;50.956;4.242;2023-06-14T08:18:49;34.90;57.40
13148;DHT22;6639;50.956;4.242;2023-06-14T08:21:16;35.50;58.10
13148;DHT22;6639;50.956;4.242;2023-06-14T08:23:43;35.20;57.00
13148;DHT22;6639;50.956;4.242;2023-06-14T08:26:10;35.40;57.60
13148;DHT22;6639;50.956;4.242;2023-06-14T08:28:37;35.40;55.80
13148;DHT22;6639;50.956;4.242;2023-06-14T08:31:04;34.80;56.00
13148;DHT22;6639;50.956;4.242;2023-06-14T08:33:32;34.90;57.30
13148;DHT22;6639;50.956;4.242;2023-06-14T08:36:00;35.70;56.90
13148;DHT22;6639;50.956;4.242;2023-06-14T08:38:27;35.10;55.50
13148;DHT22;6639;50.956;4.242;2023-06-14T08:40:57;34.90;56.30
13148;DHT22;6639;50.956;4.242;2023-06-14T08:43:24;35.00;56.00
13148;DHT22;6639;50.956;4.242;2023-06-14T08:45:56;34.60;55.80
13148;DHT22;6639;50.956;4.242;2023-06-14T08:48:27;34.50;55.90
13148;DHT22;6639;50.956;4.242;2023-06-14T08:50:56;34.00;56.50
13148;DHT22;6639;50.956;4.242;2023-06-14T08:53:28;34.40;57.40
13148;DHT22;6639;50.956;4.242;2023-06-14T08:55:57;34.90;58.20
13148;DHT22;6639;50.956;4.242;2023-06-14T08:58:26;34.80;57.20
13148;DHT22;6639;50.956;4.242;2023-06-14T09:00:55;34.40;57.70
13148;DHT22;6639;50.956;4.242;2023-06-14T09:03:22;35.00;58.30
13148;DHT22;6639;50.956;4.242;2023-06-14T09:05:57;35.20;58.10
13148;DHT22;6639;50.956;4.242;2023-06-14T09:08:25;34.40;56.60
13148;DHT22;6639;50.956;4.242;2023-06-14T09:10:52;33.80;56.60
13148;DHT22;6639;50.956;4.242;2023-06-14T09:13:19;33.20;57.10
13148;DHT22;6639;50.956;4.242;2023-06-14T09:15:46;32.70;58.50
13148;DHT22;6639;50.956;4.242;2023-06-14T09:18:12;32.80;59.20
13148;DHT22;6639;50.956;4.242;2023-06-14T09:20:40;33.50;58.70
13148;DHT22;6639;50.956;4.242;2023-06-14T09:23:08;34.10;59.00
13148;DHT22;6639;50.956;4.242;2023-06-14T09:25:43;33.80;56.40
13148;DHT22;6639;50.956;4.242;2023-06-14T09:28:12;33.00;57.20
13148;DHT22;6639;50.956;4.242;2023-06-14T09:30:39;33.60;59.00
13148;DHT22;6639;50.956;4.242;2023-06-14T09:33:06;34.10;57.80
13148;DHT22;6639;50.956;4.242;2023-06-14T09:35:34;34.30;58.00
13148;DHT22;6639;50.956;4.242;2023-06-14T09:38:01;34.30;58.30
13148;DHT22;6639;50.956;4.242;2023-06-14T09:40:34;33.90;58.40
13148;DHT22;6639;50.956;4.242;2023-06-14T09:43:03;34.30;58.00
13148;DHT22;6639;50.956;4.242;2023-06-14T09:45:30;34.40;57.40
13148;DHT22;6639;50.956;4.242;2023-06-14T09:47:58;34.30;57.00
13148;DHT22;6639;50.956;4.242;2023-06-14T09:50:25;34.10;57.50
13148;DHT22;6639;50.956;4.242;2023-06-14T09:52:52;33.50;57.50
13148;DHT22;6639;50.956;4.242;2023-06-14T09:55:22;33.40;57.10
13148;DHT22;6639;50.956;4.242;2023-06-14T09:57:51;33.10;57.20
13148;DHT22;6639;50.956;4.242;2023-06-14T10:00:20;32.70;57.90
13148;DHT22;6639;50.956;4.242;2023-06-14T10:02:54;32.90;58.30
13148;DHT22;6639;50.956;4.242;2023-06-14T10:05:21;33.20;58.40
13148;DHT22;6639;50.956;4.242;2023-06-14T10:07:53;32.90;58.50
13148;DHT22;6639;50.956;4.242;2023-06-14T10:10:22;33.00;57.30
13148;DHT22;6639;50.956;4.242;2023-06-14T10:12:50;33.10;57.40
13148;DHT22;6639;50.956;4.242;2023-06-14T10:15:22;33.40;58.60
13148;DHT22;6639;50.956;4.242;2023-06-14T10:17:54;34.00;56.90
13148;DHT22;6639;50.956;4.242;2023-06-14T10:20:28;34.00;56.90
13148;DHT22;6639;50.956;4.242;2023-06-14T10:23:02;34.50;57.80
13148;DHT22;6639;50.956;4.242;2023-06-14T10:25:31;34.20;56.70
13148;DHT22;6639;50.956;4.242;2023-06-14T10:28:19;34.30;55.80
13148;DHT22;6639;50.956;4.242;2023-06-14T10:31:04;33.70;55.30
13148;DHT22;6639;50.956;4.242;2023-06-14T10:33:31;34.10;56.50
13148;DHT22;6639;50.956;4.242;2023-06-14T10:39:05;34.10;55.40
13148;DHT22;6639;50.956;4.242;2023-06-14T10:41:36;34.30;54.70
13148;DHT22;6639;50.956;4.242;2023-06-14T10:47:26;34.30;53.60
13148;DHT22;6639;50.956;4.242;2023-06-14T10:49:54;34.30;52.70
13148;DHT22;6639;50.956;4.242;2023-06-14T10:52:26;33.80;52.40
13148;DHT22;6639;50.956;4.242;2023-06-14T10:55:06;33.50;52.90
13148;DHT22;6639;50.956;4.242;2023-06-14T10:57:35;32.80;54.30
13148;DHT22;6639;50.956;4.242;2023-06-14T11:00:03;33.20;54.50
13148;DHT22;6639;50.956;4.242;2023-06-14T11:03:23;33.10;53.40
13148;DHT22;6639;50.956;4.242;2023-06-14T11:05:55;33.10;56.00
13148;DHT22;6639;50.956;4.242;2023-06-14T11:08:39;33.20;55.30
13148;DHT22;6639;50.956;4.242;2023-06-14T11:11:08;33.60;54.80
13148;DHT22;6639;50.956;4.242;2023-06-14T11:13:38;33.80;54.40
13148;DHT22;6639;50.956;4.242;2023-06-14T11:16:10;34.50;54.30
13148;DHT22;6639;50.956;4.242;2023-06-14T11:18:39;34.40;52.70
13148;DHT22;6639;50.956;4.242;2023-06-14T11:21:06;34.50;53.20
13148;DHT22;6639;50.956;4.242;2023-06-14T11:23:34;34.30;54.20
13148;DHT22;6639;50.956;4.242;2023-06-14T11:26:01;34.90;55.00
13148;DHT22;6639;50.956;4.242;2023-06-14T11:28:37;34.90;54.00
13148;DHT22;6639;50.956;4.242;2023-06-14T11:31:04;35.00;54.40
13148;DHT22;6639;50.956;4.242;2023-06-14T11:33:31;35.00;52.00
13148;DHT22;6639;50.956;4.242;2023-06-14T11:36:01;35.00;53.70
13148;DHT22;6639;50.956;4.242;2023-06-14T11:38:29;35.20;53.50
13148;DHT22;6639;50.956;4.242;2023-06-14T11:40:58;35.30;52.10
13148;DHT22;6639;50.956;4.242;2023-06-14T11:43:26;35.50;51.90
13148;DHT22;6639;50.956;4.242;2023-06-14T11:45:53;35.00;52.10
13148;DHT22;6639;50.956;4.242;2023-06-14T11:48:20;35.00;52.20
13148;DHT22;6639;50.956;4.242;2023-06-14T11:50:49;35.20;53.40
13148;DHT22;6639;50.956;4.242;2023-06-14T11:53:18;35.10;53.30
13148;DHT22;6639;50.956;4.242;2023-06-14T11:55:45;34.80;52.10
13148;DHT22;6639;50.956;4.242;2023-06-14T11:58:13;34.70;52.10
13148;DHT22;6639;50.956;4.242;2023-06-14T12:00:41;35.10;52.00
13148;DHT22;6639;50.956;4.242;2023-06-14T12:03:08;34.80;51.70
13148;DHT22;6639;50.956;4.242;2023-06-14T12:05:35;34.20;52.80
13148;DHT22;6639;50.956;4.242;2023-06-14T12:08:03;33.80;52.80
13148;DHT22;6639;50.956;4.242;2023-06-14T12:10:41;34.10;51.80
13148;DHT22;6639;50.956;4.242;2023-06-14T12:13:09;34.20;51.20
13148;DHT22;6639;50.956;4.242;2023-06-14T12:15:36;34.10;51.70
13148;DHT22;6639;50.956;4.242;2023-06-14T12:18:05;34.40;51.90
13148;DHT22;6639;50.956;4.242;2023-06-14T12:20:33;34.30;51.60
13148;DHT22;6639;50.956;4.242;2023-06-14T12:23:03;34.40;51.90
13148;DHT22;6639;50.956;4.242;2023-06-14T12:25:32;34.00;52.20
13148;DHT22;6639;50.956;4.242;2023-06-14T12:28:05;33.60;51.40
13148;DHT22;6639;50.956;4.242;2023-06-14T12:30:32;33.80;51.60
13148;DHT22;6639;50.956;4.242;2023-06-14T12:32:59;34.70;51.70
13148;DHT22;6639;50.956;4.242;2023-06-14T12:35:26;34.70;50.20
13148;DHT22;6639;50.956;4.242;2023-06-14T12:37:53;35.10;51.00
13148;DHT22;6639;50.956;4.242;2023-06-14T12:40:20;35.40;51.90
13148;DHT22;6639;50.956;4.242;2023-06-14T12:42:47;35.20;50.50
13148;DHT22;6639;50.956;4.242;2023-06-14T12:45:15;35.60;50.00
13148;DHT22;6639;50.956;4.242;2023-06-14T12:47:42;35.40;51.10
13148;DHT22;6639;50.956;4.242;2023-06-14T12:50:09;35.60;50.00
13148;DHT22;6639;50.956;4.242;2023-06-14T12:52:36;35.00;50.70
13148;DHT22;6639;50.956;4.242;2023-06-14T12:55:04;35.10;50.80
13148;DHT22;6639;50.956;4.242;2023-06-14T12:57:32;34.60;50.50
13148;DHT22;6639;50.956;4.242;2023-06-14T13:00:02;34.70;49.90
13148;DHT22;6639;50.956;4.242;2023-06-14T13:02:31;34.80;49.00
13148;DHT22;6639;50.956;4.242;2023-06-14T13:04:58;35.10;49.90
13148;DHT22;6639;50.956;4.242;2023-06-14T13:07:25;35.20;50.30
13148;DHT22;6639;50.956;4.242;2023-06-14T13:09:52;35.70;50.70
13148;DHT22;6639;50.956;4.242;2023-06-14T13:12:19;35.60;50.50
13148;DHT22;6639;50.956;4.242;2023-06-14T13:14:46;35.10;50.40
13148;DHT22;6639;50.956;4.242;2023-06-14T13:17:13;36.10;51.00
13148;DHT22;6639;50.956;4.242;2023-06-14T13:19:41;36.70;50.10
13148;DHT22;6639;50.956;4.242;2023-06-14T13:22:08;36.20;49.60
13148;DHT22;6639;50.956;4.242;2023-06-14T13:24:36;36.20;50.60
13148;DHT22;6639;50.956;4.242;2023-06-14T13:27:03;35.50;49.90
13148;DHT22;6639;50.956;4.242;2023-06-14T13:29:31;35.70;50.80
13148;DHT22;6639;50.956;4.242;2023-06-14T13:31:58;35.30;49.10
13148;DHT22;6639;50.956;4.242;2023-06-14T13:34:26;35.00;50.90
13148;DHT22;6639;50.956;4.242;2023-06-14T13:36:54;35.10;50.60
13148;DHT22;6639;50.956;4.242;2023-06-14T13:39:21;35.60;50.70
13148;DHT22;6639;50.956;4.242;2023-06-14T13:41:48;35.40;50.10
13148;DHT22;6639;50.956;4.242;2023-06-14T13:44:15;34.80;50.20
13148;DHT22;6639;50.956;4.242;2023-06-14T13:46:44;33.80;50.20
13148;DHT22;6639;50.956;4.242;2023-06-14T13:49:11;33.70;50.90
13148;DHT22;6639;50.956;4.242;2023-06-14T13:51:38;34.70;50.20
13148;DHT22;6639;50.956;4.242;2023-06-14T13:54:06;34.30;49.50
13148;DHT22;6639;50.956;4.242;2023-06-14T13:56:33;34.30;49.10
13148;DHT22;6639;50.956;4.242;2023-06-14T13:59:00;34.00;49.70
13148;DHT22;6639;50.956;4.242;2023-06-14T14:01:27;33.80;48.50
13148;DHT22;6639;50.956;4.242;2023-06-14T14:03:54;34.50;48.50
13148;DHT22;6639;50.956;4.242;2023-06-14T14:06:21;34.90;48.20
13148;DHT22;6639;50.956;4.242;2023-06-14T14:08:48;34.30;49.30
13148;DHT22;6639;50.956;4.242;2023-06-14T14:11:17;34.00;48.90
13148;DHT22;6639;50.956;4.242;2023-06-14T14:13:44;34.50;49.10
13148;DHT22;6639;50.956;4.242;2023-06-14T14:16:12;34.60;48.70
13148;DHT22;6639;50.956;4.242;2023-06-14T14:18:39;35.20;49.00
13148;DHT22;6639;50.956;4.242;2023-06-14T14:21:06;34.60;47.50
13148;DHT22;6639;50.956;4.242;2023-06-14T14:23:33;34.30;48.20
13148;DHT22;6639;50.956;4.242;2023-06-14T14:26:00;34.30;47.50
13148;DHT22;6639;50.956;4.242;2023-06-14T14:28:31;33.80;47.70
13148;DHT22;6639;50.956;4.242;2023-06-14T14:30:58;34.30;48.50
13148;DHT22;6639;50.956;4.242;2023-06-14T14:33:25;34.30;46.50
13148;DHT22;6639;50.956;4.242;2023-06-14T14:35:52;34.20;46.60
13148;DHT22;6639;50.956;4.242;2023-06-14T14:38:19;34.40;46.70
13148;DHT22;6639;50.956;4.242;2023-06-14T14:40:46;34.60;48.00
13148;DHT22;6639;50.956;4.242;2023-06-14T14:43:12;35.20;46.70
13148;DHT22;6639;50.956;4.242;2023-06-14T14:45:41;34.40;45.70
13148;DHT22;6639;50.956;4.242;2023-06-14T14:48:08;33.90;47.10
13148;DHT22;6639;50.956;4.242;2023-06-14T14:50:35;33.70;48.20
13148;DHT22;6639;50.956;4.242;2023-06-14T14:53:02;33.80;48.60
13148;DHT22;6639;50.956;4.242;2023-06-14T14:55:29;33.80;47.60
13148;DHT22;6639;50.956;4.242;2023-06-14T14:57:56;33.70;48.70
13148;DHT22;6639;50.956;4.242;2023-06-14T15:00:23;33.70;48.20
13148;DHT22;6639;50.956;4.242;2023-06-14T15:02:51;34.00;48.70
13148;DHT22;6639;50.956;4.242;2023-06-14T15:05:18;33.00;47.60
13148;DHT22;6639;50.956;4.242;2023-06-14T15:07:45;33.10;49.10
13148;DHT22;6639;50.956;4.242;2023-06-14T15:10:12;32.90;48.00
13148;DHT22;6639;50.956;4.242;2023-06-14T15:12:39;32.80;49.30
13148;DHT22;6639;50.956;4.242;2023-06-14T15:15:06;33.10;48.50
13148;DHT22;6639;50.956;4.242;2023-06-14T15:17:34;32.90;48.70
13148;DHT22;6639;50.956;4.242;2023-06-14T15:20:03;32.90;48.40
13148;DHT22;6639;50.956;4.242;2023-06-14T15:22:31;32.60;49.00
13148;DHT22;6639;50.956;4.242;2023-06-14T15:24:58;32.40;47.90
13148;DHT22;6639;50.956;4.242;2023-06-14T15:27:25;32.70;48.30
13148;DHT22;6639;50.956;4.242;2023-06-14T15:29:53;32.80;47.80
13148;DHT22;6639;50.956;4.242;2023-06-14T15:32:21;33.80;48.00
13148;DHT22;6639;50.956;4.242;2023-06-14T15:34:48;34.00;47.90
13148;DHT22;6639;50.956;4.242;2023-06-14T15:37:16;33.70;48.00
13148;DHT22;6639;50.956;4.242;2023-06-14T15:39:43;33.80;48.90
13148;DHT22;6639;50.956;4.242;2023-06-14T15:42:10;33.90;48.80
13148;DHT22;6639;50.956;4.242;2023-06-14T15:44:37;33.80;48.30
13148;DHT22;6639;50.956;4.242;2023-06-14T15:47:05;33.30;48.90
13148;DHT22;6639;50.956;4.242;2023-06-14T15:49:32;33.30;47.30
13148;DHT22;6639;50.956;4.242;2023-06-14T15:51:59;32.70;48.60
13148;DHT22;6639;50.956;4.242;2023-06-14T15:54:28;32.70;48.00
13148;DHT22;6639;50.956;4.242;2023-06-14T15:56:55;32.70;48.20